Time;durP1;ratioP1;P1;durP2;ratioP2;P2;SDS_P1;SDS_P2;PMS_P1;PMS_P2;Temp;Humidity;BMP_temperature;BMP_pressure;BME280_temperature;BME280_humidity;BME280_pressure;Samples;Min_cycle;Max_cycle;Signal;HPM_P1;HPM_P2
2023/07/16 00:02:06;;;;;;;3.17;2.22;;;16.90;99.90;;;;;;5080075;28;20067;-65
2023/07/16 00:04:33;;;;;;;5.35;1.83;;;16.90;99.90;;;;;;5077608;28;20044;-64
2023/07/16 00:07:02;;;;;;;2.00;1.80;;;17.00;99.90;;;;;;5078064;28;20051;-64
2023/07/16 00:09:29;;;;;;;4.05;1.88;;;17.00;99.90;;;;;;5081309;28;20494;-64
2023/07/16 00:11:56;;;;;;;3.35;2.45;;;17.10;99.90;;;;;;5077064;28;20076;-64
2023/07/16 00:14:23;;;;;;;3.35;2.00;;;17.10;99.90;;;;;;5079882;28;20040;-64
2023/07/16 00:16:50;;;;;;;2.53;1.75;;;17.20;99.90;;;;;;5077186;28;20044;-64
2023/07/16 00:19:17;;;;;;;2.85;1.75;;;17.20;99.90;;;;;;5081062;28;20552;-64
2023/07/16 00:21:44;;;;;;;2.92;2.08;;;17.20;99.90;;;;;;5083201;28;20055;-64
2023/07/16 00:24:11;;;;;;;2.08;1.88;;;17.30;99.90;;;;;;5079319;28;20028;-64
2023/07/16 00:26:38;;;;;;;3.20;1.90;;;17.30;99.90;;;;;;5074266;28;20132;-64
2023/07/16 00:29:05;;;;;;;2.65;2.45;;;17.40;99.90;;;;;;5078266;28;20124;-64
2023/07/16 00:31:32;;;;;;;4.20;1.70;;;17.40;99.90;;;;;;5077001;28;20774;-64
2023/07/16 00:33:59;;;;;;;2.63;1.90;;;17.40;99.90;;;;;;5079670;28;20489;-64
2023/07/16 00:36:26;;;;;;;2.25;1.88;;;17.40;99.90;;;;;;5067070;28;20131;-64
2023/07/16 00:38:53;;;;;;;2.58;2.28;;;17.40;99.90;;;;;;5055866;28;20048;-63
2023/07/16 00:41:20;;;;;;;3.60;2.00;;;17.40;99.90;;;;;;5079646;28;20440;-64
2023/07/16 00:43:47;;;;;;;2.25;1.55;;;17.40;99.90;;;;;;5080133;28;20064;-64
2023/07/16 00:46:15;;;;;;;3.95;2.53;;;17.40;99.90;;;;;;5061089;28;20048;-65
2023/07/16 00:48:43;;;;;;;3.65;2.95;;;17.40;99.90;;;;;;5080047;28;21008;-64
2023/07/16 00:51:10;;;;;;;2.67;2.15;;;17.40;99.90;;;;;;5078775;28;20044;-64
2023/07/16 00:53:38;;;;;;;6.05;2.60;;;17.50;99.90;;;;;;5077596;28;20052;-64
2023/07/16 00:56:05;;;;;;;4.00;2.80;;;17.60;99.90;;;;;;5076183;28;20036;-64
2023/07/16 00:58:32;;;;;;;11.00;3.38;;;17.70;99.90;;;;;;5058428;28;20643;-64
2023/07/16 01:00:59;;;;;;;2.58;1.77;;;17.80;99.90;;;;;;5061113;28;20044;-64
2023/07/16 01:03:27;;;;;;;2.63;2.05;;;17.80;99.90;;;;;;5080336;28;20062;-65
2023/07/16 01:06:03;;;;;;;2.50;2.28;;;17.90;99.90;;;;;;5079867;28;20052;-63
2023/07/16 01:08:39;;;;;;;4.03;3.25;;;17.90;99.90;;;;;;5079760;28;20056;-65
2023/07/16 01:11:07;;;;;;;2.47;1.77;;;18.00;99.90;;;;;;5075503;28;20072;-70
2023/07/16 01:13:35;;;;;;;4.80;2.92;;;18.10;99.90;;;;;;5054715;28;20072;-64
2023/07/16 01:16:02;;;;;;;3.42;2.17;;;18.10;99.90;;;;;;5082899;28;20040;-65
2023/07/16 01:18:29;;;;;;;5.43;2.53;;;18.20;99.90;;;;;;5075015;28;20040;-65
2023/07/16 01:20:56;;;;;;;3.33;2.60;;;18.20;99.90;;;;;;5085437;28;20066;-65
2023/07/16 01:23:50;;;;;;;2.30;2.10;;;18.30;99.90;;;;;;5063336;28;20044;-65
2023/07/16 01:26:35;;;;;;;3.08;2.45;;;18.30;99.90;;;;;;5077136;28;20032;-64
2023/07/16 01:29:27;;;;;;;2.00;1.90;;;18.40;99.90;;;;;;5077195;28;20068;-69
2023/07/16 01:31:56;;;;;;;3.63;2.17;;;18.50;99.90;;;;;;5079486;28;20044;-64
2023/07/16 01:34:26;;;;;;;4.97;2.80;;;18.50;99.90;;;;;;5077989;28;20042;-64
2023/07/16 01:36:54;;;;;;;3.50;2.85;;;18.50;99.90;;;;;;5075731;28;20032;-65
2023/07/16 01:39:21;;;;;;;3.38;3.08;;;18.60;99.90;;;;;;5077758;28;20113;-64
2023/07/16 01:41:48;;;;;;;4.95;2.50;;;18.60;99.90;;;;;;5079263;28;20036;-64
2023/07/16 01:44:14;;;;;;;2.83;1.83;;;18.70;99.90;;;;;;5079209;28;20043;-66
2023/07/16 01:46:41;;;;;;;5.03;2.20;;;18.70;99.90;;;;;;5064846;28;20071;-64
2023/07/16 01:49:09;;;;;;;7.05;3.15;;;18.80;99.90;;;;;;5054986;28;20093;-63
2023/07/16 01:51:37;;;;;;;2.17;2.00;;;18.90;99.90;;;;;;5081021;28;20063;-66
2023/07/16 01:54:04;;;;;;;7.13;3.05;;;19.00;99.90;;;;;;5074485;28;20105;-66
2023/07/16 01:56:31;;;;;;;3.60;3.30;;;19.00;99.90;;;;;;5078266;28;20098;-64
2023/07/16 01:58:58;;;;;;;3.15;2.28;;;19.00;99.90;;;;;;5067396;28;20071;-66
2023/07/16 02:01:25;;;;;;;2.40;2.10;;;19.10;99.90;;;;;;5080333;28;20061;-64
2023/07/16 02:03:52;;;;;;;3.92;2.33;;;19.10;99.90;;;;;;5078251;28;20340;-64
2023/07/16 02:06:19;;;;;;;7.75;2.28;;;19.20;99.90;;;;;;5076826;28;20089;-66
2023/07/16 02:08:47;;;;;;;4.32;2.63;;;19.20;99.90;;;;;;5081268;28;20052;-66
2023/07/16 02:11:14;;;;;;;6.10;2.88;;;19.30;99.90;;;;;;5066333;28;20059;-64
2023/07/16 02:13:41;;;;;;;4.18;2.58;;;19.30;99.90;;;;;;5062404;28;20098;-65
2023/07/16 02:16:08;;;;;;;3.47;2.63;;;19.30;99.90;;;;;;5071870;28;20082;-65
2023/07/16 02:18:35;;;;;;;5.60;2.35;;;19.30;99.90;;;;;;5079099;28;20470;-65
2023/07/16 02:21:02;;;;;;;4.38;2.30;;;19.40;99.90;;;;;;5074358;28;20048;-65
2023/07/16 02:23:30;;;;;;;7.57;2.92;;;19.40;99.90;;;;;;5072577;28;20136;-64
2023/07/16 02:25:57;;;;;;;3.33;2.63;;;19.40;99.90;;;;;;5082336;28;20036;-67
2023/07/16 02:28:24;;;;;;;4.03;2.17;;;19.50;99.90;;;;;;5078780;28;20036;-66
2023/07/16 02:30:52;;;;;;;2.13;1.92;;;19.50;99.90;;;;;;5067342;28;20144;-64
2023/07/16 02:33:19;;;;;;;3.67;2.53;;;19.60;99.90;;;;;;5058962;28;20391;-64
2023/07/16 02:35:48;;;;;;;2.65;2.45;;;19.60;99.90;;;;;;5075496;28;20062;-66
2023/07/16 02:38:15;;;;;;;2.75;2.10;;;19.60;99.90;;;;;;5079464;28;20037;-65
2023/07/16 02:40:44;;;;;;;5.25;2.80;;;19.70;99.90;;;;;;5077664;28;20056;-64
2023/07/16 02:43:11;;;;;;;2.67;2.47;;;19.70;99.90;;;;;;5071646;28;20048;-64
2023/07/16 02:45:38;;;;;;;10.35;3.35;;;19.80;99.90;;;;;;5081950;28;20044;-64
2023/07/16 02:48:06;;;;;;;6.90;3.20;;;19.80;99.90;;;;;;5077846;28;20040;-65
2023/07/16 02:50:39;;;;;;;3.58;2.35;;;19.80;99.90;;;;;;5073852;28;20059;-65
2023/07/16 02:53:07;;;;;;;4.50;2.60;;;19.80;99.90;;;;;;5075031;28;20036;-64
2023/07/16 02:55:37;;;;;;;6.22;3.08;;;19.90;99.90;;;;;;5076667;28;20059;-63
2023/07/16 02:58:04;;;;;;;3.38;2.78;;;19.90;99.90;;;;;;5062330;28;20136;-64
2023/07/16 03:00:31;;;;;;;5.82;2.85;;;19.90;99.90;;;;;;5059040;28;20560;-65
2023/07/16 03:02:59;;;;;;;3.13;2.72;;;20.00;99.90;;;;;;5052901;28;20051;-64
2023/07/16 03:05:27;;;;;;;5.68;3.30;;;20.00;99.90;;;;;;5076442;28;20068;-64
2023/07/16 03:07:56;;;;;;;5.35;2.83;;;20.00;99.90;;;;;;5077899;28;20053;-64
2023/07/16 03:10:26;;;;;;;5.32;3.70;;;20.00;99.90;;;;;;5076007;28;20574;-65
2023/07/16 03:12:53;;;;;;;;;;;20.00;99.90;;;;;;5077905;28;20040;-64
2023/07/16 03:15:21;;;;;;;3.00;2.70;;;20.10;99.90;;;;;;5066505;28;20641;-64
2023/07/16 03:17:48;;;;;;;7.82;4.82;;;20.10;99.90;;;;;;5071374;28;20502;-64
2023/07/16 03:20:15;;;;;;;6.13;3.50;;;20.10;99.90;;;;;;5075220;28;20089;-64
2023/07/16 03:22:42;;;;;;;3.35;2.90;;;20.10;99.90;;;;;;5073617;28;20052;-64
2023/07/16 03:25:09;;;;;;;4.85;3.15;;;20.10;99.90;;;;;;5056330;28;20051;-66
2023/07/16 03:27:36;;;;;;;3.75;3.10;;;20.20;99.90;;;;;;5061636;28;20430;-64
2023/07/16 03:30:04;;;;;;;5.22;3.97;;;20.20;99.90;;;;;;5077051;28;20528;-64
2023/07/16 03:32:31;;;;;;;3.67;2.60;;;20.20;99.90;;;;;;5075057;28;20079;-65
2023/07/16 03:35:17;;;;;;;4.82;4.10;;;20.20;99.90;;;;;;5076562;28;20055;-64
2023/07/16 03:37:44;;;;;;;4.15;2.40;;;20.30;99.90;;;;;;5075884;28;20048;-66
2023/07/16 03:40:24;;;;;;;6.82;3.63;;;20.30;99.90;;;;;;5074275;28;20040;-64
2023/07/16 03:42:51;;;;;;;4.07;3.37;;;20.30;99.90;;;;;;5054781;28;20048;-64
2023/07/16 03:45:18;;;;;;;5.43;3.38;;;20.40;99.90;;;;;;5057788;28;20127;-65
2023/07/16 03:47:45;;;;;;;3.00;2.80;;;20.40;99.90;;;;;;5058183;28;20041;-64
2023/07/16 03:50:12;;;;;;;3.55;3.10;;;20.40;99.90;;;;;;5066936;28;20036;-63
2023/07/16 03:52:39;;;;;;;3.55;2.53;;;20.40;99.90;;;;;;5076571;28;20141;-65
2023/07/16 03:55:07;;;;;;;6.38;3.13;;;20.40;99.90;;;;;;5063531;28;20056;-66
2023/07/16 03:57:34;;;;;;;5.78;3.10;;;20.50;99.90;;;;;;5081653;28;20060;-64
2023/07/16 04:00:04;;;;;;;5.22;3.75;;;20.50;99.90;;;;;;5060276;28;20044;-65
2023/07/16 04:02:40;;;;;;;5.28;3.22;;;20.50;99.90;;;;;;5082297;28;20562;-64
2023/07/16 04:05:11;;;;;;;5.72;3.10;;;20.50;99.90;;;;;;5072636;28;20130;-66
2023/07/16 04:07:38;;;;;;;6.18;2.97;;;20.50;99.90;;;;;;5080968;28;20082;-63
2023/07/16 04:10:06;;;;;;;6.50;4.22;;;20.50;99.90;;;;;;5079220;28;20515;-66
2023/07/16 04:12:33;;;;;;;5.40;3.30;;;20.60;99.90;;;;;;5082212;28;20039;-65
2023/07/16 04:15:00;;;;;;;8.75;4.75;;;20.60;99.90;;;;;;5080869;28;20463;-64
2023/07/16 04:17:27;;;;;;;8.38;3.58;;;20.60;99.90;;;;;;5075414;28;20048;-64
2023/07/16 04:19:54;;;;;;;4.75;3.28;;;20.60;99.90;;;;;;5080369;28;20052;-64
2023/07/16 04:22:20;;;;;;;5.13;3.03;;;20.70;99.90;;;;;;5072560;28;20048;-64
2023/07/16 04:24:47;;;;;;;11.07;4.97;;;20.70;99.90;;;;;;5078037;28;20631;-65
2023/07/16 04:27:14;;;;;;;7.20;3.78;;;20.70;99.90;;;;;;5080819;28;20087;-65
2023/07/16 04:29:41;;;;;;;3.50;3.20;;;20.70;99.90;;;;;;5079903;28;20043;-64
2023/07/16 04:32:08;;;;;;;4.65;3.53;;;20.80;99.90;;;;;;5061554;28;20044;-69
2023/07/16 04:34:35;;;;;;;4.65;3.20;;;20.80;99.90;;;;;;5081927;28;20180;-65
2023/07/16 04:37:02;;;;;;;6.35;3.55;;;20.80;99.90;;;;;;5079899;28;20681;-66
2023/07/16 04:39:29;;;;;;;8.07;3.72;;;20.80;99.90;;;;;;5079475;28;20098;-64
2023/07/16 04:41:56;;;;;;;7.45;3.42;;;20.90;99.90;;;;;;5075487;28;20064;-66
2023/07/16 04:44:23;;;;;;;4.80;3.83;;;21.00;99.90;;;;;;5076975;28;20041;-67
2023/07/16 04:46:50;;;;;;;7.30;3.53;;;21.10;99.90;;;;;;5078737;28;20122;-64
2023/07/16 04:49:17;;;;;;;4.47;3.08;;;21.20;99.90;;;;;;5078061;28;20385;-64
2023/07/16 04:51:44;;;;;;;11.05;5.07;;;21.30;99.90;;;;;;5075612;28;20076;-64
2023/07/16 04:54:10;;;;;;;4.18;3.10;;;21.30;99.90;;;;;;5078314;28;20132;-64
2023/07/16 04:56:37;;;;;;;4.28;3.10;;;21.40;99.90;;;;;;5081022;28;20064;-64
2023/07/16 04:59:04;;;;;;;3.10;2.80;;;21.40;99.90;;;;;;5073883;28;20520;-66
2023/07/16 05:01:31;;;;;;;6.22;4.47;;;21.40;99.90;;;;;;5078534;28;20078;-64
2023/07/16 05:03:58;;;;;;;5.78;4.88;;;21.40;99.90;;;;;;5076032;28;20441;-64
2023/07/16 05:06:25;;;;;;;6.50;3.03;;;21.40;99.90;;;;;;5080345;28;20115;-64
2023/07/16 05:08:52;;;;;;;4.30;3.17;;;21.40;99.90;;;;;;5080264;28;20418;-65
2023/07/16 05:11:19;;;;;;;4.47;3.28;;;21.50;99.90;;;;;;5075147;28;20440;-64
2023/07/16 05:13:46;;;;;;;4.78;3.63;;;21.50;99.90;;;;;;5078978;28;20090;-64
2023/07/16 05:16:13;;;;;;;3.10;2.65;;;21.50;99.90;;;;;;5078370;28;21607;-66
2023/07/16 05:18:40;;;;;;;7.88;3.20;;;21.60;99.90;;;;;;5073705;28;20391;-64
2023/07/16 05:21:07;;;;;;;5.68;3.63;;;21.60;99.90;;;;;;5077520;28;20094;-64
2023/07/16 05:23:34;;;;;;;5.35;3.42;;;21.60;99.90;;;;;;5075298;28;21100;-64
2023/07/16 05:26:01;;;;;;;3.50;2.83;;;21.70;99.90;;;;;;5074260;28;20565;-64
2023/07/16 05:28:27;;;;;;;7.97;4.00;;;21.90;99.90;;;;;;5076330;28;20040;-65
2023/07/16 05:30:59;;;;;;;6.65;4.43;;;22.00;99.90;;;;;;5079866;28;20121;-64
2023/07/16 05:33:26;;;;;;;6.28;4.18;;;22.10;99.90;;;;;;5078565;28;20127;-66
2023/07/16 05:35:52;;;;;;;6.05;3.63;;;22.20;99.90;;;;;;5081557;28;20718;-64
2023/07/16 05:38:19;;;;;;;8.05;4.22;;;22.30;99.90;;;;;;5078966;28;20044;-65
2023/07/16 05:40:46;;;;;;;5.00;3.83;;;22.30;99.90;;;;;;5079137;28;20068;-66
2023/07/16 05:43:14;;;;;;;3.70;3.40;;;22.40;99.90;;;;;;5078550;28;20063;-64
2023/07/16 05:45:41;;;;;;;6.25;3.90;;;22.40;99.90;;;;;;5078768;28;20062;-65
2023/07/16 05:48:08;;;;;;;4.68;4.20;;;22.50;99.90;;;;;;5074369;28;20051;-66
2023/07/16 05:50:35;;;;;;;8.27;3.90;;;22.60;99.90;;;;;;5073909;28;20113;-64
2023/07/16 05:53:02;;;;;;;4.78;3.58;;;22.60;99.90;;;;;;5073615;28;20067;-64
2023/07/16 05:55:29;;;;;;;7.00;4.10;;;22.70;99.90;;;;;;5074541;28;20036;-64
2023/07/16 05:57:56;;;;;;;5.50;3.35;;;22.80;99.90;;;;;;5073123;28;20074;-64
2023/07/16 06:00:24;;;;;;;3.80;3.38;;;22.80;99.90;;;;;;5073239;28;20613;-64
2023/07/16 06:02:51;;;;;;;5.40;3.35;;;22.90;99.90;;;;;;5080057;28;20088;-64
2023/07/16 06:05:18;;;;;;;3.50;3.10;;;22.90;99.90;;;;;;5076945;28;20048;-64
2023/07/16 06:07:45;;;;;;;5.35;4.20;;;22.90;99.90;;;;;;5075381;28;20036;-64
2023/07/16 06:10:12;;;;;;;4.78;3.97;;;22.90;99.90;;;;;;5079135;28;20109;-66
2023/07/16 06:12:38;;;;;;;6.28;3.40;;;23.00;99.90;;;;;;5079358;28;20582;-65
2023/07/16 06:15:07;;;;;;;6.07;3.45;;;23.10;99.90;;;;;;5074775;28;20055;-66
2023/07/16 06:17:34;;;;;;;4.18;3.67;;;23.10;99.90;;;;;;5073204;28;20105;-64
2023/07/16 06:20:02;;;;;;;5.20;4.28;;;23.10;99.90;;;;;;5079165;28;20033;-63
2023/07/16 06:22:29;;;;;;;6.05;3.08;;;23.00;99.90;;;;;;5074322;28;20149;-64
2023/07/16 06:24:56;;;;;;;6.13;3.80;;;22.90;99.90;;;;;;5076841;28;20131;-65
2023/07/16 06:27:23;;;;;;;8.82;4.63;;;23.00;99.90;;;;;;5081285;28;20078;-64
2023/07/16 06:29:50;;;;;;;8.50;4.35;;;23.00;99.90;;;;;;5077868;28;20123;-65
2023/07/16 06:32:17;;;;;;;9.25;4.43;;;23.10;99.90;;;;;;5072217;28;20041;-65
2023/07/16 06:34:44;;;;;;;7.18;3.72;;;23.10;99.90;;;;;;5075616;28;20128;-64
2023/07/16 06:37:10;;;;;;;5.22;3.58;;;23.10;99.90;;;;;;5074429;28;20047;-64
2023/07/16 06:39:37;;;;;;;4.10;3.58;;;23.20;99.90;;;;;;5074042;28;20051;-63
2023/07/16 06:42:05;;;;;;;7.30;3.50;;;23.40;99.90;;;;;;5078562;28;20060;-66
2023/07/16 06:44:32;;;;;;;4.40;3.67;;;23.40;99.90;;;;;;5074163;28;20057;-65
2023/07/16 06:46:59;;;;;;;7.95;3.97;;;23.50;99.90;;;;;;5075993;28;20076;-64
2023/07/16 06:49:26;;;;;;;5.72;4.45;;;23.60;99.90;;;;;;5078458;28;20138;-64
2023/07/16 06:51:53;;;;;;;7.70;3.67;;;23.60;99.90;;;;;;5079037;28;20055;-65
2023/07/16 06:54:20;;;;;;;3.55;3.25;;;23.60;99.90;;;;;;5069874;28;20067;-65
2023/07/16 06:56:47;;;;;;;5.50;4.13;;;23.60;99.90;;;;;;5071056;28;20060;-65
2023/07/16 06:59:14;;;;;;;6.18;4.60;;;23.50;99.90;;;;;;5073067;28;20557;-65
2023/07/16 07:01:41;;;;;;;4.18;3.70;;;23.50;99.90;;;;;;5073549;28;20043;-64
2023/07/16 07:04:08;;;;;;;6.13;4.60;;;23.50;99.90;;;;;;5073553;28;20076;-65
2023/07/16 07:06:34;;;;;;;9.23;5.82;;;23.30;99.90;;;;;;5077082;28;20503;-65
2023/07/16 07:09:01;;;;;;;4.68;3.58;;;23.20;99.90;;;;;;5077574;28;20052;-64
2023/07/16 07:11:28;;;;;;;6.70;4.97;;;23.10;99.90;;;;;;5071049;28;20076;-64
2023/07/16 07:13:57;;;;;;;5.13;4.38;;;23.10;99.90;;;;;;5075385;28;20044;-64
2023/07/16 07:16:24;;;;;;;3.88;3.53;;;22.90;99.90;;;;;;5072003;28;20169;-64
2023/07/16 07:18:51;;;;;;;8.52;4.22;;;22.80;99.90;;;;;;5078808;28;20039;-65
2023/07/16 07:21:18;;;;;;;8.23;6.10;;;22.70;99.90;;;;;;5075605;28;20044;-64
2023/07/16 07:23:45;;;;;;;7.65;5.00;;;22.60;99.90;;;;;;5076201;28;20549;-65
2023/07/16 07:26:12;;;;;;;7.78;4.70;;;22.60;99.90;;;;;;5076663;28;20040;-65
2023/07/16 07:28:38;;;;;;;6.55;4.85;;;22.40;99.90;;;;;;5085010;28;20406;-65
2023/07/16 07:31:05;;;;;;;5.90;5.40;;;22.40;99.90;;;;;;5075259;28;20105;-64
2023/07/16 07:33:32;;;;;;;5.95;5.22;;;22.30;99.90;;;;;;5082436;28;20234;-64
2023/07/16 07:35:59;;;;;;;6.60;4.70;;;22.30;99.90;;;;;;5085683;28;20078;-66
2023/07/16 07:38:26;;;;;;;5.72;5.13;;;22.30;99.90;;;;;;5078983;28;20081;-64
2023/07/16 07:40:53;;;;;;;5.82;4.90;;;22.20;99.90;;;;;;5078394;28;20093;-64
2023/07/16 07:43:20;;;;;;;6.72;4.65;;;22.10;99.90;;;;;;5085231;28;20143;-64
2023/07/16 07:45:47;;;;;;;7.05;6.40;;;22.10;99.90;;;;;;5074362;28;20102;-64
2023/07/16 07:48:13;;;;;;;9.05;4.85;;;22.10;99.90;;;;;;5078425;28;20104;-64
2023/07/16 07:50:40;;;;;;;5.40;4.93;;;22.00;99.90;;;;;;5082163;28;20820;-64
2023/07/16 07:53:07;;;;;;;5.55;5.05;;;22.10;99.90;;;;;;5082754;28;20039;-64
2023/07/16 07:55:37;;;;;;;11.68;6.78;;;22.10;99.90;;;;;;5082426;28;20052;-66
2023/07/16 07:58:04;;;;;;;7.50;5.50;;;22.10;99.90;;;;;;5078112;28;20299;-64
2023/07/16 08:00:31;;;;;;;5.57;4.68;;;22.10;99.90;;;;;;5074771;28;20051;-64
2023/07/16 08:02:58;;;;;;;6.15;4.85;;;22.20;99.90;;;;;;5079724;28;20036;-64
2023/07/16 08:05:25;;;;;;;6.07;5.47;;;22.20;99.90;;;;;;5081497;28;20039;-66
2023/07/16 08:07:53;;;;;;;6.88;4.85;;;22.20;99.90;;;;;;5078601;28;20043;-64
2023/07/16 08:10:20;;;;;;;6.97;5.93;;;22.20;99.90;;;;;;5076940;28;20058;-64
2023/07/16 08:12:46;;;;;;;6.15;4.85;;;22.40;99.90;;;;;;5076968;28;20066;-65
2023/07/16 08:15:14;;;;;;;7.78;5.30;;;22.50;99.90;;;;;;5078648;28;20078;-64
2023/07/16 08:17:45;;;;;;;8.50;4.80;;;22.50;99.90;;;;;;5077881;28;20057;-64
2023/07/16 08:20:12;;;;;;;6.95;4.80;;;22.40;99.90;;;;;;5081004;28;20041;-65
2023/07/16 08:22:40;;;;;;;7.10;4.90;;;22.30;99.90;;;;;;5077666;28;20040;-64
2023/07/16 08:25:07;;;;;;;7.63;4.68;;;22.20;99.90;;;;;;5081351;28;20084;-66
2023/07/16 08:27:35;;;;;;;7.82;5.20;;;22.10;99.90;;;;;;5077937;28;20210;-64
2023/07/16 08:30:02;;;;;;;5.43;4.93;;;22.00;99.90;;;;;;5078351;28;20049;-65
2023/07/16 08:32:29;;;;;;;5.68;4.82;;;22.00;99.90;;;;;;5076687;28;20498;-64
2023/07/16 08:34:56;;;;;;;6.53;4.70;;;22.00;99.90;;;;;;5078211;28;20036;-64
2023/07/16 08:37:22;;;;;;;5.78;4.70;;;22.00;99.90;;;;;;5075129;28;20041;-66
2023/07/16 08:39:55;;;;;;;5.25;4.75;;;21.90;99.90;;;;;;5074323;28;20526;-64
2023/07/16 08:42:23;;;;;;;5.65;5.03;;;21.90;99.90;;;;;;5082892;28;20079;-66
2023/07/16 08:44:50;;;;;;;5.38;4.82;;;21.80;99.90;;;;;;5075310;28;20068;-64
2023/07/16 08:47:17;;;;;;;8.07;5.18;;;21.70;99.90;;;;;;5073523;28;20040;-66
2023/07/16 08:49:55;;;;;;;8.70;7.30;;;21.70;99.90;;;;;;5071534;28;20055;-64
2023/07/16 08:52:23;;;;;;;5.68;4.93;;;21.50;99.90;;;;;;5073161;28;20047;-64
2023/07/16 08:54:50;;;;;;;5.63;5.13;;;21.40;99.90;;;;;;5077812;28;20486;-65
2023/07/16 08:57:19;;;;;;;6.05;4.68;;;21.40;99.90;;;;;;5073830;28;20039;-64
2023/07/16 08:59:49;;;;;;;8.63;6.38;;;21.40;99.90;;;;;;5079958;28;20040;-64
2023/07/16 09:02:18;;;;;;;13.30;5.80;;;21.30;99.90;;;;;;5078586;28;20552;-65
2023/07/16 09:04:51;;;;;;;5.53;5.13;;;21.30;99.90;;;;;;5080522;28;20273;-65
2023/07/16 09:07:18;;;;;;;5.95;4.72;;;21.40;99.90;;;;;;5076402;28;20055;-65
2023/07/16 09:10:00;;;;;;;;;;;21.30;99.90;;;;;;5080369;28;20618;-65
2023/07/16 09:12:27;;;;;;;8.47;5.87;;;21.20;99.90;;;;;;5081034;28;19974;-65
2023/07/16 09:14:55;;;;;;;9.88;6.45;;;21.10;99.90;;;;;;5079345;28;20093;-64
2023/07/16 09:17:23;;;;;;;6.47;4.88;;;21.00;99.90;;;;;;5073368;28;20045;-65
2023/07/16 09:19:51;;;;;;;8.45;5.45;;;21.00;99.90;;;;;;5078762;28;20055;-64
2023/07/16 09:22:19;;;;;;;13.63;6.30;;;20.90;99.90;;;;;;5077021;28;20542;-65
2023/07/16 09:24:47;;;;;;;10.95;5.88;;;20.80;99.90;;;;;;5072386;28;20048;-65
2023/07/16 09:27:14;;;;;;;8.85;6.10;;;20.70;99.90;;;;;;5078394;28;20141;-66
2023/07/16 09:29:41;;;;;;;12.07;7.18;;;20.50;99.90;;;;;;5076978;28;20044;-64
2023/07/16 09:32:08;;;;;;;12.25;6.07;;;20.30;99.90;;;;;;5079634;28;20110;-64
2023/07/16 09:34:35;;;;;;;12.20;8.07;;;20.10;99.90;;;;;;5075808;28;20051;-65
2023/07/16 09:37:04;;;;;;;7.95;7.18;;;20.00;99.90;;;;;;5074215;28;20429;-65
2023/07/16 09:39:32;;;;;;;8.98;6.70;;;19.90;99.90;;;;;;5079040;28;20471;-64
2023/07/16 09:41:59;;;;;;;8.02;7.05;;;19.70;99.90;;;;;;5081443;28;20138;-64
2023/07/16 09:44:26;;;;;;;12.27;6.88;;;19.60;99.90;;;;;;5056985;28;20131;-65
2023/07/16 09:46:53;;;;;;;11.73;7.30;;;19.50;99.90;;;;;;5078086;28;20064;-64
2023/07/16 09:49:20;;;;;;;16.70;8.60;;;19.30;99.90;;;;;;5077434;28;20052;-64
2023/07/16 09:51:52;;;;;;;9.80;8.32;;;19.30;99.90;;;;;;5072888;28;20130;-64
2023/07/16 09:54:19;;;;;;;15.13;8.25;;;19.20;99.90;;;;;;5076081;28;20097;-63
2023/07/16 09:57:00;;;;;;;10.32;6.13;;;19.10;99.90;;;;;;5075113;28;20044;-64
2023/07/16 09:59:29;;;;;;;13.18;6.60;;;19.00;99.90;;;;;;5076648;28;20055;-65
2023/07/16 10:01:57;;;;;;;14.73;7.72;;;19.00;99.90;;;;;;5077195;28;20059;-63
2023/07/16 10:04:24;;;;;;;10.60;6.07;;;18.90;99.90;;;;;;5078934;28;20042;-63
2023/07/16 10:06:59;;;;;;;9.20;5.78;;;18.80;99.90;;;;;;5078067;28;20385;-63
2023/07/16 10:09:40;;;;;;;7.55;4.85;;;18.80;99.90;;;;;;5077279;28;20052;-63
2023/07/16 10:12:10;;;;;;;6.68;4.75;;;18.70;99.90;;;;;;5075924;28;20043;-65
2023/07/16 10:14:45;;;;;;;9.63;5.88;;;18.60;99.90;;;;;;5073073;28;20052;-64
2023/07/16 10:17:19;;;;;;;8.13;4.82;;;18.60;99.90;;;;;;5076151;28;20074;-63
2023/07/16 10:19:56;;;;;;;9.73;5.05;;;18.60;99.90;;;;;;5080636;28;20087;-64
2023/07/16 10:22:45;;;;;;;8.15;4.72;;;18.50;99.90;;;;;;5078456;28;20048;-64
2023/07/16 10:25:18;;;;;;;9.25;4.32;;;18.50;99.90;;;;;;5077277;28;20044;-64
2023/07/16 10:27:47;;;;;;;12.85;5.78;;;18.50;99.90;;;;;;5074192;28;20067;-64
2023/07/16 10:30:14;;;;;;;5.90;4.53;;;18.50;99.90;;;;;;5072817;28;20059;-64
2023/07/16 10:32:41;;;;;;;11.60;6.13;;;18.40;99.90;;;;;;5077406;28;20145;-65
2023/07/16 10:35:09;;;;;;;8.70;4.47;;;18.40;99.90;;;;;;5075536;28;20047;-65
2023/07/16 10:37:37;;;;;;;5.97;4.45;;;18.30;99.90;;;;;;5074579;28;20060;-65
2023/07/16 10:40:05;;;;;;;12.35;4.95;;;18.30;99.90;;;;;;5076276;28;20036;-65
2023/07/16 10:42:32;;;;;;;5.40;3.20;;;18.30;99.90;;;;;;5073005;28;20080;-65
2023/07/16 10:45:01;;;;;;;7.38;4.20;;;18.30;99.90;;;;;;5071706;28;20472;-64
2023/07/16 10:47:35;;;;;;;8.40;3.85;;;18.30;99.90;;;;;;5073296;28;20036;-64
2023/07/16 10:50:07;;;;;;;5.45;3.90;;;18.30;99.90;;;;;;5075495;28;20105;-64
2023/07/16 10:52:36;;;;;;;9.20;4.43;;;18.30;99.90;;;;;;5080208;28;20174;-64
2023/07/16 10:55:03;;;;;;;4.95;3.42;;;18.50;99.90;;;;;;5081056;28;20541;-65
2023/07/16 10:57:31;;;;;;;5.82;4.78;;;18.60;99.90;;;;;;5078752;28;20118;-65
2023/07/16 10:59:58;;;;;;;4.55;4.05;;;18.80;99.90;;;;;;5076436;28;20510;-64
2023/07/16 11:02:26;;;;;;;5.90;4.22;;;18.90;99.90;;;;;;5078275;28;20054;-64
2023/07/16 11:04:53;;;;;;;8.00;4.85;;;19.00;99.90;;;;;;5080372;28;20043;-64
2023/07/16 11:07:21;;;;;;;6.43;3.53;;;19.10;99.90;;;;;;5058331;28;20662;-65
2023/07/16 11:09:54;;;;;;;4.95;2.75;;;19.20;99.90;;;;;;5081563;28;20434;-65
2023/07/16 11:12:22;;;;;;;2.83;2.60;;;19.40;99.90;;;;;;5075910;28;20579;-65
2023/07/16 11:14:54;;;;;;;3.85;3.42;;;19.40;99.90;;;;;;5077956;28;20114;-65
2023/07/16 11:17:24;;;;;;;6.40;3.42;;;19.70;99.90;;;;;;5082560;28;20117;-65
2023/07/16 11:19:53;;;;;;;5.15;2.78;;;20.00;99.90;;;;;;5079171;28;20045;-65
2023/07/16 11:22:24;;;;;;;4.45;3.55;;;19.90;99.90;;;;;;5079489;28;20072;-65
2023/07/16 11:24:51;;;;;;;4.45;3.13;;;20.10;99.90;;;;;;5078904;28;20045;-65
2023/07/16 11:27:24;;;;;;;4.90;3.13;;;20.30;99.90;;;;;;5072489;28;20045;-65
2023/07/16 11:29:53;;;;;;;2.85;2.53;;;20.50;99.90;;;;;;5075335;28;20456;-65
2023/07/16 11:32:31;;;;;;;5.00;3.35;;;20.70;99.90;;;;;;5078157;28;20538;-65
2023/07/16 11:35:00;;;;;;;4.18;3.40;;;20.80;99.90;;;;;;5081442;28;20050;-65
2023/07/16 11:37:29;;;;;;;4.57;2.28;;;21.10;99.90;;;;;;5072534;28;20128;-66
2023/07/16 11:40:00;;;;;;;3.00;2.30;;;21.20;99.90;;;;;;5078561;28;20097;-66
2023/07/16 11:42:33;;;;;;;3.42;3.08;;;21.40;99.90;;;;;;5079831;28;20605;-65
2023/07/16 11:45:00;;;;;;;3.25;2.13;;;21.40;99.90;;;;;;5079722;28;20524;-65
2023/07/16 11:47:28;;;;;;;3.15;2.03;;;21.30;99.90;;;;;;5081144;28;20129;-65
2023/07/16 11:49:55;;;;;;;4.78;2.78;;;21.50;99.90;;;;;;5079468;28;20123;-65
2023/07/16 11:52:28;;;;;;;4.68;2.10;;;21.60;99.90;;;;;;5078657;28;20071;-65
2023/07/16 11:55:00;;;;;;;4.35;1.90;;;21.70;99.90;;;;;;5080698;28;20049;-65
2023/07/16 11:57:28;;;;;;;3.28;2.25;;;21.80;99.90;;;;;;5077897;28;20044;-66
2023/07/16 11:59:55;;;;;;;3.13;2.50;;;21.90;99.90;;;;;;5081460;28;20121;-66
2023/07/16 12:02:22;;;;;;;4.20;3.00;;;22.20;99.90;;;;;;5057177;28;20044;-65
2023/07/16 12:04:49;;;;;;;3.08;2.35;;;22.10;99.90;;;;;;5079745;28;20087;-65
2023/07/16 12:07:35;;;;;;;2.10;1.90;;;22.00;99.90;;;;;;5079582;28;20072;-66
2023/07/16 12:10:06;;;;;;;3.30;2.67;;;22.10;99.90;;;;;;5077092;28;20056;-66
2023/07/16 12:12:37;;;;;;;2.97;2.63;;;22.30;99.90;;;;;;5076925;28;20067;-65
2023/07/16 12:15:09;;;;;;;1.92;1.52;;;22.40;99.90;;;;;;5080918;28;20046;-65
2023/07/16 12:17:36;;;;;;;5.47;2.30;;;22.60;99.90;;;;;;5078085;28;20126;-66
2023/07/16 12:20:04;;;;;;;4.43;2.00;;;22.80;99.90;;;;;;5079197;28;20040;-66
2023/07/16 12:22:31;;;;;;;2.38;1.40;;;22.80;99.90;;;;;;5055386;28;20117;-65
2023/07/16 12:24:58;;;;;;;2.22;1.85;;;22.90;99.90;;;;;;5082158;28;20085;-66
2023/07/16 12:27:25;;;;;;;3.03;1.88;;;23.00;99.90;;;;;;5076800;28;20114;-65
2023/07/16 12:29:52;;;;;;;2.42;1.80;;;23.10;99.90;;;;;;5074796;28;21538;-65
2023/07/16 12:32:20;;;;;;;1.67;1.58;;;23.10;99.90;;;;;;5079116;28;20052;-65
2023/07/16 12:34:47;;;;;;;2.38;2.17;;;23.00;99.90;;;;;;5077836;28;20047;-66
2023/07/16 12:37:14;;;;;;;2.60;2.40;;;23.00;99.90;;;;;;5076758;28;20055;-66
2023/07/16 12:39:41;;;;;;;3.97;2.40;;;23.20;99.90;;;;;;5079016;28;20094;-65
2023/07/16 12:42:08;;;;;;;4.35;2.03;;;23.30;99.90;;;;;;5076259;28;20049;-66
2023/07/16 12:44:35;;;;;;;6.70;2.03;;;23.20;99.90;;;;;;5077701;28;20049;-66
2023/07/16 12:47:02;;;;;;;3.08;2.17;;;23.40;99.90;;;;;;5079087;28;20299;-66
2023/07/16 12:49:29;;;;;;;4.88;2.05;;;23.40;99.90;;;;;;5076169;28;20493;-66
2023/07/16 12:51:56;;;;;;;2.00;1.65;;;23.50;99.90;;;;;;5080862;28;20050;-66